sensor_id;sensor_type;location;lat;lon;timestamp;temperature;humidity
13606;DHT22;6874;52.084;5.090;2023-09-19T00:00:21;16.20;99.90
13606;DHT22;6874;52.084;5.090;2023-09-19T00:02:57;16.10;99.90
13606;DHT22;6874;52.084;5.090;2023-09-19T00:05:28;16.20;99.90
13606;DHT22;6874;52.084;5.090;2023-09-19T00:07:55;16.10;99.90
13606;DHT22;6874;52.084;5.090;2023-09-19T00:10:22;16.10;99.90
13606;DHT22;6874;52.084;5.090;2023-09-19T00:12:50;16.10;99.90
13606;DHT22;6874;52.084;5.090;2023-09-19T00:15:17;16.20;99.90
13606;DHT22;6874;52.084;5.090;2023-09-19T00:17:43;16.10;99.90
13606;DHT22;6874;52.084;5.090;2023-09-19T00:20:09;16.00;99.90
13606;DHT22;6874;52.084;5.090;2023-09-19T00:22:41;16.00;99.90
13606;DHT22;6874;52.084;5.090;2023-09-19T00:25:11;16.00;99.90
13606;DHT22;6874;52.084;5.090;2023-09-19T00:27:40;16.00;99.90
13606;DHT22;6874;52.084;5.090;2023-09-19T00:30:08;15.90;99.90
13606;DHT22;6874;52.084;5.090;2023-09-19T00:32:53;16.00;99.90
13606;DHT22;6874;52.084;5.090;2023-09-19T00:35:20;16.00;99.90
13606;DHT22;6874;52.084;5.090;2023-09-19T00:37:49;15.90;99.90
13606;DHT22;6874;52.084;5.090;2023-09-19T00:40:14;15.90;99.90
13606;DHT22;6874;52.084;5.090;2023-09-19T00:42:43;16.00;99.90
13606;DHT22;6874;52.084;5.090;2023-09-19T00:45:10;16.00;99.90
13606;DHT22;6874;52.084;5.090;2023-09-19T00:47:42;15.90;99.90
13606;DHT22;6874;52.084;5.090;2023-09-19T00:50:10;15.90;99.90
13606;DHT22;6874;52.084;5.090;2023-09-19T00:52:37;15.90;99.90
13606;DHT22;6874;52.084;5.090;2023-09-19T00:55:10;15.80;99.90
13606;DHT22;6874;52.084;5.090;2023-09-19T00:57:37;15.90;99.90
13606;DHT22;6874;52.084;5.090;2023-09-19T01:00:07;15.90;99.90
13606;DHT22;6874;52.084;5.090;2023-09-19T01:02:36;15.80;99.90
13606;DHT22;6874;52.084;5.090;2023-09-19T01:05:02;15.80;99.90
13606;DHT22;6874;52.084;5.090;2023-09-19T01:07:32;15.80;99.90
13606;DHT22;6874;52.084;5.090;2023-09-19T01:09:59;15.90;99.90
13606;DHT22;6874;52.084;5.090;2023-09-19T01:15:45;15.80;99.90
13606;DHT22;6874;52.084;5.090;2023-09-19T01:21:11;15.80;99.90
13606;DHT22;6874;52.084;5.090;2023-09-19T01:29:49;15.70;99.90
13606;DHT22;6874;52.084;5.090;2023-09-19T01:32:18;15.70;99.90
13606;DHT22;6874;52.084;5.090;2023-09-19T01:34:52;15.70;99.90
13606;DHT22;6874;52.084;5.090;2023-09-19T01:37:18;15.70;99.90
13606;DHT22;6874;52.084;5.090;2023-09-19T01:40:11;15.60;99.90
13606;DHT22;6874;52.084;5.090;2023-09-19T01:42:44;15.60;99.90
13606;DHT22;6874;52.084;5.090;2023-09-19T01:47:51;15.60;99.90
13606;DHT22;6874;52.084;5.090;2023-09-19T01:50:39;15.60;99.90
13606;DHT22;6874;52.084;5.090;2023-09-19T01:53:14;15.50;99.90
13606;DHT22;6874;52.084;5.090;2023-09-19T01:55:47;15.50;99.90
13606;DHT22;6874;52.084;5.090;2023-09-19T01:58:32;15.50;99.90
13606;DHT22;6874;52.084;5.090;2023-09-19T02:01:00;15.50;99.90
13606;DHT22;6874;52.084;5.090;2023-09-19T02:03:27;15.50;99.90
13606;DHT22;6874;52.084;5.090;2023-09-19T02:05:54;15.40;99.90
13606;DHT22;6874;52.084;5.090;2023-09-19T02:08:21;15.40;99.90
13606;DHT22;6874;52.084;5.090;2023-09-19T02:10:51;15.40;99.90
13606;DHT22;6874;52.084;5.090;2023-09-19T02:13:19;15.40;99.90
13606;DHT22;6874;52.084;5.090;2023-09-19T02:15:45;15.40;99.90
13606;DHT22;6874;52.084;5.090;2023-09-19T02:18:12;15.40;99.90
13606;DHT22;6874;52.084;5.090;2023-09-19T02:20:38;15.40;99.90
13606;DHT22;6874;52.084;5.090;2023-09-19T02:23:04;15.30;99.90
13606;DHT22;6874;52.084;5.090;2023-09-19T02:25:29;15.40;99.90
13606;DHT22;6874;52.084;5.090;2023-09-19T02:27:56;15.30;99.90
13606;DHT22;6874;52.084;5.090;2023-09-19T02:30:24;15.30;99.90
13606;DHT22;6874;52.084;5.090;2023-09-19T02:32:51;15.30;99.90
13606;DHT22;6874;52.084;5.090;2023-09-19T02:35:17;15.30;99.90
13606;DHT22;6874;52.084;5.090;2023-09-19T02:37:45;15.30;99.90
13606;DHT22;6874;52.084;5.090;2023-09-19T02:40:11;15.30;99.90
13606;DHT22;6874;52.084;5.090;2023-09-19T02:42:49;15.20;99.90
13606;DHT22;6874;52.084;5.090;2023-09-19T02:45:18;15.20;99.90
13606;DHT22;6874;52.084;5.090;2023-09-19T02:47:45;15.20;99.90
13606;DHT22;6874;52.084;5.090;2023-09-19T02:50:11;15.20;99.90
13606;DHT22;6874;52.084;5.090;2023-09-19T02:52:37;15.20;99.90
13606;DHT22;6874;52.084;5.090;2023-09-19T02:55:03;15.20;99.90
13606;DHT22;6874;52.084;5.090;2023-09-19T02:57:30;15.20;99.90
13606;DHT22;6874;52.084;5.090;2023-09-19T02:59:56;15.10;99.90
13606;DHT22;6874;52.084;5.090;2023-09-19T03:02:22;15.20;99.90
13606;DHT22;6874;52.084;5.090;2023-09-19T03:04:49;15.10;99.90
13606;DHT22;6874;52.084;5.090;2023-09-19T03:07:16;15.10;99.90
13606;DHT22;6874;52.084;5.090;2023-09-19T03:09:42;15.00;99.90
13606;DHT22;6874;52.084;5.090;2023-09-19T03:12:08;15.10;99.90
13606;DHT22;6874;52.084;5.090;2023-09-19T03:14:34;15.00;99.90
13606;DHT22;6874;52.084;5.090;2023-09-19T03:17:01;15.00;99.90
13606;DHT22;6874;52.084;5.090;2023-09-19T03:19:30;15.00;99.90
13606;DHT22;6874;52.084;5.090;2023-09-19T03:21:59;15.00;99.90
13606;DHT22;6874;52.084;5.090;2023-09-19T03:24:24;15.00;99.90
13606;DHT22;6874;52.084;5.090;2023-09-19T03:26:50;15.00;99.90
13606;DHT22;6874;52.084;5.090;2023-09-19T03:29:16;14.90;99.90
13606;DHT22;6874;52.084;5.090;2023-09-19T03:31:42;14.90;99.90
13606;DHT22;6874;52.084;5.090;2023-09-19T03:34:08;14.90;99.90
13606;DHT22;6874;52.084;5.090;2023-09-19T03:36:34;14.90;99.90
13606;DHT22;6874;52.084;5.090;2023-09-19T03:39:00;14.90;99.90
13606;DHT22;6874;52.084;5.090;2023-09-19T03:41:26;14.80;99.90
13606;DHT22;6874;52.084;5.090;2023-09-19T03:43:51;14.90;99.90
13606;DHT22;6874;52.084;5.090;2023-09-19T03:46:17;14.80;99.90
13606;DHT22;6874;52.084;5.090;2023-09-19T03:48:42;14.90;99.90
13606;DHT22;6874;52.084;5.090;2023-09-19T03:51:08;14.80;99.90
13606;DHT22;6874;52.084;5.090;2023-09-19T03:53:34;14.80;99.90
13606;DHT22;6874;52.084;5.090;2023-09-19T03:56:00;14.80;99.90
13606;DHT22;6874;52.084;5.090;2023-09-19T03:58:25;14.80;99.90
13606;DHT22;6874;52.084;5.090;2023-09-19T04:00:55;14.80;99.90
13606;DHT22;6874;52.084;5.090;2023-09-19T04:03:20;14.80;99.90
13606;DHT22;6874;52.084;5.090;2023-09-19T04:05:46;14.70;99.90
13606;DHT22;6874;52.084;5.090;2023-09-19T04:08:13;14.60;99.90
13606;DHT22;6874;52.084;5.090;2023-09-19T04:10:42;14.70;99.90
13606;DHT22;6874;52.084;5.090;2023-09-19T04:13:07;14.80;99.90
13606;DHT22;6874;52.084;5.090;2023-09-19T04:15:33;14.70;99.90
13606;DHT22;6874;52.084;5.090;2023-09-19T04:17:58;14.70;99.90
13606;DHT22;6874;52.084;5.090;2023-09-19T04:20:25;14.70;99.90
13606;DHT22;6874;52.084;5.090;2023-09-19T04:22:51;14.60;99.90
13606;DHT22;6874;52.084;5.090;2023-09-19T04:25:17;14.60;99.90
13606;DHT22;6874;52.084;5.090;2023-09-19T04:27:44;14.60;99.90
13606;DHT22;6874;52.084;5.090;2023-09-19T04:30:10;14.60;99.90
13606;DHT22;6874;52.084;5.090;2023-09-19T04:32:38;14.60;99.90
13606;DHT22;6874;52.084;5.090;2023-09-19T04:35:06;14.60;99.90
13606;DHT22;6874;52.084;5.090;2023-09-19T04:37:37;14.60;99.90
13606;DHT22;6874;52.084;5.090;2023-09-19T04:40:04;14.60;99.90
13606;DHT22;6874;52.084;5.090;2023-09-19T04:42:31;14.50;99.90
13606;DHT22;6874;52.084;5.090;2023-09-19T04:44:57;14.50;99.90
13606;DHT22;6874;52.084;5.090;2023-09-19T04:47:25;14.50;99.90
13606;DHT22;6874;52.084;5.090;2023-09-19T04:49:50;14.50;99.90
13606;DHT22;6874;52.084;5.090;2023-09-19T04:52:16;14.50;99.90
13606;DHT22;6874;52.084;5.090;2023-09-19T04:54:41;14.50;99.90
13606;DHT22;6874;52.084;5.090;2023-09-19T04:57:07;14.50;99.90
13606;DHT22;6874;52.084;5.090;2023-09-19T04:59:33;14.40;99.90
13606;DHT22;6874;52.084;5.090;2023-09-19T05:01:59;14.40;99.90
13606;DHT22;6874;52.084;5.090;2023-09-19T05:04:25;14.40;99.90
13606;DHT22;6874;52.084;5.090;2023-09-19T05:06:50;14.40;99.90
13606;DHT22;6874;52.084;5.090;2023-09-19T05:09:16;14.40;99.90
13606;DHT22;6874;52.084;5.090;2023-09-19T05:11:45;14.40;99.90
13606;DHT22;6874;52.084;5.090;2023-09-19T05:14:11;14.40;99.90
13606;DHT22;6874;52.084;5.090;2023-09-19T05:16:37;14.40;99.90
13606;DHT22;6874;52.084;5.090;2023-09-19T05:19:02;14.40;99.90
13606;DHT22;6874;52.084;5.090;2023-09-19T05:21:28;14.40;99.90
13606;DHT22;6874;52.084;5.090;2023-09-19T05:23:56;14.40;99.90
13606;DHT22;6874;52.084;5.090;2023-09-19T05:26:22;14.30;99.90
13606;DHT22;6874;52.084;5.090;2023-09-19T05:28:47;14.30;99.90
13606;DHT22;6874;52.084;5.090;2023-09-19T05:31:13;14.30;99.90
13606;DHT22;6874;52.084;5.090;2023-09-19T05:33:40;14.30;99.90
13606;DHT22;6874;52.084;5.090;2023-09-19T05:36:06;14.30;99.90
13606;DHT22;6874;52.084;5.090;2023-09-19T05:38:48;14.30;99.90
13606;DHT22;6874;52.084;5.090;2023-09-19T05:41:15;14.30;99.90
13606;DHT22;6874;52.084;5.090;2023-09-19T05:43:41;14.30;99.90
13606;DHT22;6874;52.084;5.090;2023-09-19T05:46:07;14.40;99.90
13606;DHT22;6874;52.084;5.090;2023-09-19T05:48:33;14.30;99.90
13606;DHT22;6874;52.084;5.090;2023-09-19T05:50:59;14.30;99.90
13606;DHT22;6874;52.084;5.090;2023-09-19T05:53:26;14.30;99.90
13606;DHT22;6874;52.084;5.090;2023-09-19T05:55:51;14.30;99.90
13606;DHT22;6874;52.084;5.090;2023-09-19T05:58:18;14.30;99.90
13606;DHT22;6874;52.084;5.090;2023-09-19T06:00:45;14.30;99.90
13606;DHT22;6874;52.084;5.090;2023-09-19T06:03:12;14.30;99.90
13606;DHT22;6874;52.084;5.090;2023-09-19T06:05:39;14.30;99.90
13606;DHT22;6874;52.084;5.090;2023-09-19T06:08:07;14.30;99.90
13606;DHT22;6874;52.084;5.090;2023-09-19T06:10:33;14.30;99.90
13606;DHT22;6874;52.084;5.090;2023-09-19T06:13:01;14.30;99.90
13606;DHT22;6874;52.084;5.090;2023-09-19T06:15:30;14.30;99.90
13606;DHT22;6874;52.084;5.090;2023-09-19T06:17:58;14.30;99.90
13606;DHT22;6874;52.084;5.090;2023-09-19T06:20:26;14.40;99.90
13606;DHT22;6874;52.084;5.090;2023-09-19T06:22:52;14.40;99.90
13606;DHT22;6874;52.084;5.090;2023-09-19T06:25:18;14.40;99.90
13606;DHT22;6874;52.084;5.090;2023-09-19T06:27:52;14.40;99.90
13606;DHT22;6874;52.084;5.090;2023-09-19T06:30:19;14.40;99.90
13606;DHT22;6874;52.084;5.090;2023-09-19T06:32:45;14.30;99.90
13606;DHT22;6874;52.084;5.090;2023-09-19T06:35:12;14.40;99.90
13606;DHT22;6874;52.084;5.090;2023-09-19T06:37:39;14.40;99.90
13606;DHT22;6874;52.084;5.090;2023-09-19T06:40:10;14.40;99.90
13606;DHT22;6874;52.084;5.090;2023-09-19T06:42:43;14.40;99.90
13606;DHT22;6874;52.084;5.090;2023-09-19T06:45:11;14.40;99.90
13606;DHT22;6874;52.084;5.090;2023-09-19T06:47:39;14.40;99.90
13606;DHT22;6874;52.084;5.090;2023-09-19T06:50:05;14.40;99.90
13606;DHT22;6874;52.084;5.090;2023-09-19T06:52:32;14.40;99.90
13606;DHT22;6874;52.084;5.090;2023-09-19T06:54:58;14.60;99.90
13606;DHT22;6874;52.084;5.090;2023-09-19T06:57:24;14.50;99.90
13606;DHT22;6874;52.084;5.090;2023-09-19T06:59:50;14.50;99.90
13606;DHT22;6874;52.084;5.090;2023-09-19T07:02:15;14.50;99.90
13606;DHT22;6874;52.084;5.090;2023-09-19T07:04:41;14.50;99.90
13606;DHT22;6874;52.084;5.090;2023-09-19T07:07:07;14.50;99.90
13606;DHT22;6874;52.084;5.090;2023-09-19T07:09:34;14.60;99.90
13606;DHT22;6874;52.084;5.090;2023-09-19T07:12:00;14.60;99.90
13606;DHT22;6874;52.084;5.090;2023-09-19T07:14:26;14.60;99.90
13606;DHT22;6874;52.084;5.090;2023-09-19T07:16:52;14.60;99.90
13606;DHT22;6874;52.084;5.090;2023-09-19T07:19:18;14.60;99.90
13606;DHT22;6874;52.084;5.090;2023-09-19T07:21:43;14.60;99.90
13606;DHT22;6874;52.084;5.090;2023-09-19T07:24:09;14.60;99.90
13606;DHT22;6874;52.084;5.090;2023-09-19T07:26:34;14.70;99.90
13606;DHT22;6874;52.084;5.090;2023-09-19T07:29:00;14.70;99.90
13606;DHT22;6874;52.084;5.090;2023-09-19T07:31:29;14.60;99.90
13606;DHT22;6874;52.084;5.090;2023-09-19T07:33:55;14.70;99.90
13606;DHT22;6874;52.084;5.090;2023-09-19T07:36:20;14.70;99.90
13606;DHT22;6874;52.084;5.090;2023-09-19T07:38:46;14.70;99.90
13606;DHT22;6874;52.084;5.090;2023-09-19T07:41:12;14.80;99.90
13606;DHT22;6874;52.084;5.090;2023-09-19T07:43:37;14.80;99.90
13606;DHT22;6874;52.084;5.090;2023-09-19T07:46:08;14.80;99.90
13606;DHT22;6874;52.084;5.090;2023-09-19T07:48:37;14.80;99.90
13606;DHT22;6874;52.084;5.090;2023-09-19T07:51:07;14.80;99.90
13606;DHT22;6874;52.084;5.090;2023-09-19T07:53:33;14.80;99.90
13606;DHT22;6874;52.084;5.090;2023-09-19T07:56:07;14.90;99.90
13606;DHT22;6874;52.084;5.090;2023-09-19T07:58:34;14.90;99.90
13606;DHT22;6874;52.084;5.090;2023-09-19T08:01:05;14.90;99.90
13606;DHT22;6874;52.084;5.090;2023-09-19T08:03:32;14.90;99.90
13606;DHT22;6874;52.084;5.090;2023-09-19T08:05:57;14.90;99.90
13606;DHT22;6874;52.084;5.090;2023-09-19T08:08:23;14.90;99.90
13606;DHT22;6874;52.084;5.090;2023-09-19T08:10:56;15.00;99.90
13606;DHT22;6874;52.084;5.090;2023-09-19T08:13:25;15.00;99.90
13606;DHT22;6874;52.084;5.090;2023-09-19T08:15:51;15.00;99.90
13606;DHT22;6874;52.084;5.090;2023-09-19T08:18:20;15.00;99.90
13606;DHT22;6874;52.084;5.090;2023-09-19T08:20:52;15.10;99.90
13606;DHT22;6874;52.084;5.090;2023-09-19T08:23:18;15.10;99.90
13606;DHT22;6874;52.084;5.090;2023-09-19T08:25:46;15.20;99.90
13606;DHT22;6874;52.084;5.090;2023-09-19T08:28:11;15.20;99.90
13606;DHT22;6874;52.084;5.090;2023-09-19T08:30:47;15.20;99.90
13606;DHT22;6874;52.084;5.090;2023-09-19T08:33:12;15.30;99.90
13606;DHT22;6874;52.084;5.090;2023-09-19T08:35:40;15.30;99.90
13606;DHT22;6874;52.084;5.090;2023-09-19T08:38:09;15.30;99.90
13606;DHT22;6874;52.084;5.090;2023-09-19T08:40:38;15.30;99.90
13606;DHT22;6874;52.084;5.090;2023-09-19T08:43:06;15.40;99.90
13606;DHT22;6874;52.084;5.090;2023-09-19T08:45:33;15.40;99.90
13606;DHT22;6874;52.084;5.090;2023-09-19T08:48:20;15.40;99.90
13606;DHT22;6874;52.084;5.090;2023-09-19T08:51:06;15.50;99.90
13606;DHT22;6874;52.084;5.090;2023-09-19T08:56:03;15.50;99.90
13606;DHT22;6874;52.084;5.090;2023-09-19T08:58:38;15.60;99.90
13606;DHT22;6874;52.084;5.090;2023-09-19T09:01:06;15.60;99.90
13606;DHT22;6874;52.084;5.090;2023-09-19T09:03:33;15.60;99.90
13606;DHT22;6874;52.084;5.090;2023-09-19T09:06:00;15.60;99.90
13606;DHT22;6874;52.084;5.090;2023-09-19T09:08:27;15.60;99.90
13606;DHT22;6874;52.084;5.090;2023-09-19T09:10:59;15.70;99.90
13606;DHT22;6874;52.084;5.090;2023-09-19T09:13:24;15.70;99.90
13606;DHT22;6874;52.084;5.090;2023-09-19T09:15:51;15.70;99.90
13606;DHT22;6874;52.084;5.090;2023-09-19T09:18:19;15.70;99.90
13606;DHT22;6874;52.084;5.090;2023-09-19T09:20:45;15.80;99.90
13606;DHT22;6874;52.084;5.090;2023-09-19T09:23:12;15.80;99.90
13606;DHT22;6874;52.084;5.090;2023-09-19T09:25:49;15.90;99.90
13606;DHT22;6874;52.084;5.090;2023-09-19T09:28:23;15.90;99.90
13606;DHT22;6874;52.084;5.090;2023-09-19T09:30:49;15.90;99.90
13606;DHT22;6874;52.084;5.090;2023-09-19T09:33:16;16.00;99.90
13606;DHT22;6874;52.084;5.090;2023-09-19T09:35:56;16.00;99.90
13606;DHT22;6874;52.084;5.090;2023-09-19T09:38:24;16.10;99.90
13606;DHT22;6874;52.084;5.090;2023-09-19T09:40:55;16.10;99.90
13606;DHT22;6874;52.084;5.090;2023-09-19T09:43:42;16.20;99.90
13606;DHT22;6874;52.084;5.090;2023-09-19T09:46:12;16.20;99.90
13606;DHT22;6874;52.084;5.090;2023-09-19T09:48:48;16.30;99.90
13606;DHT22;6874;52.084;5.090;2023-09-19T09:51:40;16.30;99.90
13606;DHT22;6874;52.084;5.090;2023-09-19T09:54:12;16.40;99.90
13606;DHT22;6874;52.084;5.090;2023-09-19T09:56:52;16.40;99.90
13606;DHT22;6874;52.084;5.090;2023-09-19T09:59:22;16.50;99.90
13606;DHT22;6874;52.084;5.090;2023-09-19T10:01:52;16.50;99.90
13606;DHT22;6874;52.084;5.090;2023-09-19T10:04:29;16.60;99.90
13606;DHT22;6874;52.084;5.090;2023-09-19T10:07:01;16.60;99.90
13606;DHT22;6874;52.084;5.090;2023-09-19T10:09:45;16.60;99.90
13606;DHT22;6874;52.084;5.090;2023-09-19T10:12:13;16.70;99.90
13606;DHT22;6874;52.084;5.090;2023-09-19T10:14:43;16.70;99.90
13606;DHT22;6874;52.084;5.090;2023-09-19T10:17:14;16.80;99.90
13606;DHT22;6874;52.084;5.090;2023-09-19T10:19:55;16.80;99.90
13606;DHT22;6874;52.084;5.090;2023-09-19T10:22:26;16.80;99.90
13606;DHT22;6874;52.084;5.090;2023-09-19T10:24:53;16.70;99.90
13606;DHT22;6874;52.084;5.090;2023-09-19T10:27:20;16.90;99.90
13606;DHT22;6874;52.084;5.090;2023-09-19T10:29:49;16.80;99.90
13606;DHT22;6874;52.084;5.090;2023-09-19T10:32:19;16.90;99.90
13606;DHT22;6874;52.084;5.090;2023-09-19T10:34:50;17.00;99.90
13606;DHT22;6874;52.084;5.090;2023-09-19T10:37:16;17.00;99.90
13606;DHT22;6874;52.084;5.090;2023-09-19T10:39:46;17.00;99.90
13606;DHT22;6874;52.084;5.090;2023-09-19T10:42:19;17.00;99.90
13606;DHT22;6874;52.084;5.090;2023-09-19T10:44:47;17.10;99.90
13606;DHT22;6874;52.084;5.090;2023-09-19T10:47:19;17.20;99.90
13606;DHT22;6874;52.084;5.090;2023-09-19T10:49:46;17.20;99.90
13606;DHT22;6874;52.084;5.090;2023-09-19T10:52:14;17.30;99.90
13606;DHT22;6874;52.084;5.090;2023-09-19T10:54:47;17.30;99.90
13606;DHT22;6874;52.084;5.090;2023-09-19T10:57:21;17.40;99.90
13606;DHT22;6874;52.084;5.090;2023-09-19T11:00:22;17.40;99.90
13606;DHT22;6874;52.084;5.090;2023-09-19T11:06:07;17.50;99.90
13606;DHT22;6874;52.084;5.090;2023-09-19T11:11:39;17.70;99.90
13606;DHT22;6874;52.084;5.090;2023-09-19T11:30:44;17.80;99.90
13606;DHT22;6874;52.084;5.090;2023-09-19T11:33:30;17.80;99.90
13606;DHT22;6874;52.084;5.090;2023-09-19T11:36:05;17.80;99.90
13606;DHT22;6874;52.084;5.090;2023-09-19T11:43:54;17.80;99.90
13606;DHT22;6874;52.084;5.090;2023-09-19T11:49:18;17.90;99.90
13606;DHT22;6874;52.084;5.090;2023-09-19T11:51:50;17.90;99.90
13606;DHT22;6874;52.084;5.090;2023-09-19T11:54:17;17.90;99.90
13606;DHT22;6874;52.084;5.090;2023-09-19T11:56:54;17.90;99.90
13606;DHT22;6874;52.084;5.090;2023-09-19T11:59:24;17.90;99.90
13606;DHT22;6874;52.084;5.090;2023-09-19T12:01:59;17.90;99.90
13606;DHT22;6874;52.084;5.090;2023-09-19T12:04:43;18.00;99.90
13606;DHT22;6874;52.084;5.090;2023-09-19T12:07:11;17.90;99.90
13606;DHT22;6874;52.084;5.090;2023-09-19T12:09:48;18.00;99.90
13606;DHT22;6874;52.084;5.090;2023-09-19T12:12:25;17.90;99.90
13606;DHT22;6874;52.084;5.090;2023-09-19T12:14:56;17.90;99.90
13606;DHT22;6874;52.084;5.090;2023-09-19T12:17:35;17.90;99.90
13606;DHT22;6874;52.084;5.090;2023-09-19T12:20:01;18.00;99.90
13606;DHT22;6874;52.084;5.090;2023-09-19T12:22:42;18.00;99.90
13606;DHT22;6874;52.084;5.090;2023-09-19T12:25:12;17.90;99.90
13606;DHT22;6874;52.084;5.090;2023-09-19T12:27:48;17.90;99.90
13606;DHT22;6874;52.084;5.090;2023-09-19T12:30:18;17.90;99.90
13606;DHT22;6874;52.084;5.090;2023-09-19T12:32:46;17.90;99.90
13606;DHT22;6874;52.084;5.090;2023-09-19T12:35:30;17.90;99.90
13606;DHT22;6874;52.084;5.090;2023-09-19T12:37:56;17.90;99.90
13606;DHT22;6874;52.084;5.090;2023-09-19T12:40:23;17.80;99.90
13606;DHT22;6874;52.084;5.090;2023-09-19T12:42:53;17.90;99.90
13606;DHT22;6874;52.084;5.090;2023-09-19T12:45:24;17.90;99.90
13606;DHT22;6874;52.084;5.090;2023-09-19T12:53:40;17.90;99.90
13606;DHT22;6874;52.084;5.090;2023-09-19T12:56:08;18.00;99.90
13606;DHT22;6874;52.084;5.090;2023-09-19T12:58:55;18.00;99.90
13606;DHT22;6874;52.084;5.090;2023-09-19T13:01:24;18.00;99.90
13606;DHT22;6874;52.084;5.090;2023-09-19T13:04:17;18.00;99.90
13606;DHT22;6874;52.084;5.090;2023-09-19T13:06:46;18.00;99.90
13606;DHT22;6874;52.084;5.090;2023-09-19T13:09:15;18.00;99.90
13606;DHT22;6874;52.084;5.090;2023-09-19T13:11:41;18.00;99.90
13606;DHT22;6874;52.084;5.090;2023-09-19T13:14:15;18.00;99.90
13606;DHT22;6874;52.084;5.090;2023-09-19T13:17:05;18.00;99.90
13606;DHT22;6874;52.084;5.090;2023-09-19T13:19:57;18.00;99.90
13606;DHT22;6874;52.084;5.090;2023-09-19T13:22:42;18.00;99.90
13606;DHT22;6874;52.084;5.090;2023-09-19T13:25:16;18.10;99.90
13606;DHT22;6874;52.084;5.090;2023-09-19T13:27:50;18.10;99.90
13606;DHT22;6874;52.084;5.090;2023-09-19T13:30:18;18.10;99.90
13606;DHT22;6874;52.084;5.090;2023-09-19T13:32:44;18.20;99.90
13606;DHT22;6874;52.084;5.090;2023-09-19T13:35:11;18.30;99.90
13606;DHT22;6874;52.084;5.090;2023-09-19T13:37:38;18.20;99.90
13606;DHT22;6874;52.084;5.090;2023-09-19T13:40:12;18.20;99.90
13606;DHT22;6874;52.084;5.090;2023-09-19T13:42:38;18.20;99.90
13606;DHT22;6874;52.084;5.090;2023-09-19T13:45:05;18.20;99.90
13606;DHT22;6874;52.084;5.090;2023-09-19T13:47:32;18.20;99.90
13606;DHT22;6874;52.084;5.090;2023-09-19T13:49:58;18.20;99.90
13606;DHT22;6874;52.084;5.090;2023-09-19T13:52:24;18.20;99.90
13606;DHT22;6874;52.084;5.090;2023-09-19T13:54:54;18.20;99.90
13606;DHT22;6874;52.084;5.090;2023-09-19T13:57:22;18.20;99.90
13606;DHT22;6874;52.084;5.090;2023-09-19T13:59:48;18.20;99.90
13606;DHT22;6874;52.084;5.090;2023-09-19T14:02:13;18.20;99.90
13606;DHT22;6874;52.084;5.090;2023-09-19T14:04:39;18.20;99.90
13606;DHT22;6874;52.084;5.090;2023-09-19T14:07:05;18.20;99.90
13606;DHT22;6874;52.084;5.090;2023-09-19T14:09:32;18.20;99.90
13606;DHT22;6874;52.084;5.090;2023-09-19T14:11:59;18.10;99.90
13606;DHT22;6874;52.084;5.090;2023-09-19T14:14:24;18.20;99.90
13606;DHT22;6874;52.084;5.090;2023-09-19T14:16:50;18.20;99.90
13606;DHT22;6874;52.084;5.090;2023-09-19T14:19:18;18.20;99.90
13606;DHT22;6874;52.084;5.090;2023-09-19T14:21:44;18.20;99.90
13606;DHT22;6874;52.084;5.090;2023-09-19T14:24:09;18.10;99.90
13606;DHT22;6874;52.084;5.090;2023-09-19T14:26:36;18.10;99.90
13606;DHT22;6874;52.084;5.090;2023-09-19T14:29:02;18.10;99.90
13606;DHT22;6874;52.084;5.090;2023-09-19T14:31:28;18.10;99.90
13606;DHT22;6874;52.084;5.090;2023-09-19T14:33:55;18.10;99.90
13606;DHT22;6874;52.084;5.090;2023-09-19T14:36:27;18.00;99.90
13606;DHT22;6874;52.084;5.090;2023-09-19T14:38:54;18.10;99.90
13606;DHT22;6874;52.084;5.090;2023-09-19T14:41:23;18.10;99.90
13606;DHT22;6874;52.084;5.090;2023-09-19T14:43:51;18.10;99.90
13606;DHT22;6874;52.084;5.090;2023-09-19T14:46:17;18.10;99.90
13606;DHT22;6874;52.084;5.090;2023-09-19T14:48:44;18.10;99.90
13606;DHT22;6874;52.084;5.090;2023-09-19T14:51:13;18.10;99.90
13606;DHT22;6874;52.084;5.090;2023-09-19T14:53:40;18.10;99.90
13606;DHT22;6874;52.084;5.090;2023-09-19T14:56:09;18.00;99.90
13606;DHT22;6874;52.084;5.090;2023-09-19T14:58:36;18.00;99.90
13606;DHT22;6874;52.084;5.090;2023-09-19T15:01:05;18.10;99.90
13606;DHT22;6874;52.084;5.090;2023-09-19T15:03:32;18.00;99.90
13606;DHT22;6874;52.084;5.090;2023-09-19T15:06:06;18.10;99.90
13606;DHT22;6874;52.084;5.090;2023-09-19T15:08:35;18.00;99.90
13606;DHT22;6874;52.084;5.090;2023-09-19T15:11:04;18.00;99.90
13606;DHT22;6874;52.084;5.090;2023-09-19T15:13:31;18.00;99.90
13606;DHT22;6874;52.084;5.090;2023-09-19T15:16:05;18.00;99.90
13606;DHT22;6874;52.084;5.090;2023-09-19T15:18:35;18.00;99.90
13606;DHT22;6874;52.084;5.090;2023-09-19T15:21:07;18.00;99.90
13606;DHT22;6874;52.084;5.090;2023-09-19T15:23:33;18.10;99.90
13606;DHT22;6874;52.084;5.090;2023-09-19T15:26:06;18.00;99.90
13606;DHT22;6874;52.084;5.090;2023-09-19T15:28:32;18.00;99.90
13606;DHT22;6874;52.084;5.090;2023-09-19T15:31:02;18.10;99.90
13606;DHT22;6874;52.084;5.090;2023-09-19T15:33:29;18.00;99.90
13606;DHT22;6874;52.084;5.090;2023-09-19T15:38:31;18.00;99.90
13606;DHT22;6874;52.084;5.090;2023-09-19T15:40:58;18.00;99.90
13606;DHT22;6874;52.084;5.090;2023-09-19T15:43:24;18.00;99.90
13606;DHT22;6874;52.084;5.090;2023-09-19T15:45:53;18.10;99.90
13606;DHT22;6874;52.084;5.090;2023-09-19T15:48:18;18.00;99.90
13606;DHT22;6874;52.084;5.090;2023-09-19T15:50:47;18.00;99.90
13606;DHT22;6874;52.084;5.090;2023-09-19T15:53:12;17.90;99.90
13606;DHT22;6874;52.084;5.090;2023-09-19T15:55:41;18.00;99.90
13606;DHT22;6874;52.084;5.090;2023-09-19T15:58:07;18.00;99.90
13606;DHT22;6874;52.084;5.090;2023-09-19T16:00:33;18.00;99.90
13606;DHT22;6874;52.084;5.090;2023-09-19T16:03:02;18.00;99.90
13606;DHT22;6874;52.084;5.090;2023-09-19T16:05:34;18.00;99.90
13606;DHT22;6874;52.084;5.090;2023-09-19T16:08:03;18.00;99.90
13606;DHT22;6874;52.084;5.090;2023-09-19T16:10:29;18.00;99.90
13606;DHT22;6874;52.084;5.090;2023-09-19T16:12:55;18.00;99.90
13606;DHT22;6874;52.084;5.090;2023-09-19T16:15:20;18.10;99.90
13606;DHT22;6874;52.084;5.090;2023-09-19T16:17:46;18.00;99.90
13606;DHT22;6874;52.084;5.090;2023-09-19T16:20:12;17.90;99.90
13606;DHT22;6874;52.084;5.090;2023-09-19T16:22:40;18.00;99.90
13606;DHT22;6874;52.084;5.090;2023-09-19T16:25:06;17.90;99.90
13606;DHT22;6874;52.084;5.090;2023-09-19T16:27:32;17.90;99.90
13606;DHT22;6874;52.084;5.090;2023-09-19T16:30:00;17.90;99.90
13606;DHT22;6874;52.084;5.090;2023-09-19T16:32:26;17.90;99.90
13606;DHT22;6874;52.084;5.090;2023-09-19T16:34:52;17.90;99.90
13606;DHT22;6874;52.084;5.090;2023-09-19T16:37:17;18.00;99.90
13606;DHT22;6874;52.084;5.090;2023-09-19T16:39:44;17.90;99.90
13606;DHT22;6874;52.084;5.090;2023-09-19T16:42:10;17.90;99.90
13606;DHT22;6874;52.084;5.090;2023-09-19T16:44:37;17.90;99.90
13606;DHT22;6874;52.084;5.090;2023-09-19T16:47:03;17.90;99.90
13606;DHT22;6874;52.084;5.090;2023-09-19T16:49:30;17.90;99.90
13606;DHT22;6874;52.084;5.090;2023-09-19T16:51:55;17.90;99.90